Time;durP1;ratioP1;P1;durP2;ratioP2;P2;SDS_P1;SDS_P2;PMS_P1;PMS_P2;Temp;Humidity;BMP_temperature;BMP_pressure;BME280_temperature;BME280_humidity;BME280_pressure;Samples;Min_cycle;Max_cycle;Signal;HPM_P1;HPM_P2
2022/08/18 00:01:23;;;;;;;14.35;13.00;;;;;;;17.57;99.13;101350.16;5042610;28;20045;-77
2022/08/18 00:03:50;;;;;;;14.38;12.82;;;;;;;17.56;99.16;101354.06;5053136;28;20049;-78
2022/08/18 00:06:25;;;;;;;15.52;12.55;;;;;;;17.55;99.25;101363.34;5053033;28;20506;-77
2022/08/18 00:08:55;;;;;;;15.02;13.43;;;;;;;17.55;99.36;101368.75;5052544;28;20049;-77
2022/08/18 00:11:22;;;;;;;15.10;13.40;;;;;;;17.57;99.07;101366.31;5051792;28;20045;-77
2022/08/18 00:13:49;;;;;;;16.02;12.88;;;;;;;17.58;99.04;101367.06;5053692;28;20045;-77
2022/08/18 00:16:15;;;;;;;13.90;12.48;;;;;;;17.58;98.53;101367.78;5053431;28;20042;-77
2022/08/18 00:18:41;;;;;;;14.48;12.40;;;;;;;17.60;99.10;101367.28;5054380;28;20494;-77
2022/08/18 00:21:08;;;;;;;14.80;12.55;;;;;;;17.61;98.84;101374.16;5054306;28;20861;-77
2022/08/18 00:23:35;;;;;;;14.40;12.30;;;;;;;17.64;98.46;101370.53;5054073;28;20095;-77
2022/08/18 00:26:03;;;;;;;13.48;12.18;;;;;;;17.62;98.33;101365.63;5052533;28;20503;-78
2022/08/18 00:28:29;;;;;;;14.73;13.10;;;;;;;17.62;98.78;101372.94;5052580;28;20053;-78
2022/08/18 00:30:56;;;;;;;14.35;12.45;;;;;;;17.59;98.90;101380.00;5054198;28;20056;-77
2022/08/18 00:33:22;;;;;;;13.95;11.77;;;;;;;17.56;99.14;101377.56;5054119;28;20564;-77
2022/08/18 00:35:49;;;;;;;17.85;13.50;;;;;;;17.55;98.97;101378.75;5053855;28;20269;-78
2022/08/18 00:38:16;;;;;;;16.77;12.35;;;;;;;17.52;98.77;101377.00;5054176;28;20045;-78
2022/08/18 00:40:53;;;;;;;13.77;12.55;;;;;;;17.50;98.95;101372.09;5054011;28;20073;-77
2022/08/18 00:43:32;;;;;;;13.48;11.82;;;;;;;17.49;98.51;101354.47;5054082;28;20491;-78
2022/08/18 00:46:00;;;;;;;13.82;12.25;;;;;;;17.46;98.93;101351.97;5052629;28;20548;-78
2022/08/18 00:48:29;;;;;;;14.75;13.35;;;;;;;17.43;98.54;101353.66;5052338;28;20054;-78
2022/08/18 00:50:58;;;;;;;16.38;13.60;;;;;;;17.40;98.38;101361.94;5053886;28;20041;-77
2022/08/18 00:53:34;;;;;;;14.63;12.85;;;;;;;17.32;98.42;101356.97;5053777;28;20053;-77
2022/08/18 00:56:09;;;;;;;13.57;12.38;;;;;;;17.29;97.95;101365.22;5052181;28;20540;-77
2022/08/18 00:58:42;;;;;;;14.75;12.98;;;;;;;17.25;98.62;101362.00;5053843;28;20042;-77
2022/08/18 01:01:11;;;;;;;14.95;13.45;;;;;;;17.23;98.59;101364.41;5051899;28;20058;-77
2022/08/18 01:03:41;;;;;;;15.15;13.65;;;;;;;17.23;98.51;101367.84;5053274;28;20137;-77
2022/08/18 01:06:20;;;;;;;13.52;12.15;;;;;;;17.23;99.46;101386.69;5052922;28;20120;-77
2022/08/18 01:08:47;;;;;;;15.20;13.60;;;;;;;17.22;99.71;101384.47;5051902;28;20053;-77
2022/08/18 01:11:13;;;;;;;15.00;13.13;;;;;;;17.22;99.04;101384.47;5052600;28;20441;-77
2022/08/18 01:13:41;;;;;;;14.77;13.27;;;;;;;17.20;99.36;101392.25;5052048;28;20050;-77
2022/08/18 01:21:52;;;;;;;14.80;13.02;;;;;;;17.20;99.18;101390.31;5051801;28;20080;-77
2022/08/18 01:25:58;;;;;;;14.50;13.20;;;;;;;17.20;99.54;101394.94;5052793;28;20049;-77
2022/08/18 01:27:11;;;;;;;14.98;13.57;;;;;;;17.19;99.34;101390.81;5053179;28;20534;-77
2022/08/18 01:29:38;;;;;;;14.55;13.13;;;;;;;17.13;99.73;101390.72;5051505;28;20111;-77
2022/08/18 01:32:11;;;;;;;16.10;12.88;;;;;;;17.12;99.46;101391.19;5053365;28;20042;-77
2022/08/18 01:34:37;;;;;;;13.68;12.43;;;;;;;17.13;99.40;101393.41;5051315;28;20490;-77
2022/08/18 01:37:04;;;;;;;12.10;11.00;;;;;;;17.13;99.24;101390.72;5053044;28;20068;-78
2022/08/18 01:39:31;;;;;;;12.18;11.18;;;;;;;17.12;98.96;101388.50;5051184;28;20053;-78
2022/08/18 01:42:17;;;;;;;12.25;11.25;;;;;;;17.09;99.30;101395.56;5053530;28;20159;-77
2022/08/18 01:44:46;;;;;;;12.30;11.20;;;;;;;17.09;99.25;101395.56;5034853;28;20045;-77
2022/08/18 01:47:13;;;;;;;13.02;11.88;;;;;;;17.06;99.77;101396.50;5051440;28;20042;-77
2022/08/18 01:49:41;;;;;;;12.23;11.27;;;;;;;17.06;99.84;101396.50;5051728;28;20419;-78
2022/08/18 01:52:12;;;;;;;11.98;10.88;;;;;;;17.08;99.87;101396.78;5052289;28;20049;-77
2022/08/18 01:54:39;;;;;;;12.88;11.68;;;;;;;17.08;99.34;101396.03;5052680;28;20091;-78
2022/08/18 01:57:12;;;;;;;12.35;11.27;;;;;;;17.06;99.55;101398.44;5052745;28;20049;-77
2022/08/18 01:59:38;;;;;;;12.23;11.10;;;;;;;17.04;99.01;101401.59;5052608;28;20107;-78
2022/08/18 02:02:05;;;;;;;11.95;10.95;;;;;;;17.05;98.85;101410.41;5051371;28;20054;-78
2022/08/18 02:04:38;;;;;;;11.25;10.27;;;;;;;16.99;99.13;101405.69;5049968;28;20103;-78
2022/08/18 02:07:07;;;;;;;12.38;11.30;;;;;;;17.02;99.08;101397.91;5051233;28;20096;-77
2022/08/18 02:09:36;;;;;;;11.82;10.93;;;;;;;16.97;98.51;101394.66;5052883;28;20038;-78
2022/08/18 02:12:04;;;;;;;12.82;11.68;;;;;;;16.94;98.72;101392.16;5050962;28;20087;-78
2022/08/18 02:14:32;;;;;;;12.90;11.60;;;;;;;16.88;99.47;101397.44;5052594;28;20049;-78
2022/08/18 02:17:01;;;;;;;12.57;11.35;;;;;;;16.85;98.87;101398.38;5052340;28;20502;-78
2022/08/18 02:19:44;;;;;;;12.40;11.30;;;;;;;16.85;99.50;101395.69;5050886;28;20108;-78
2022/08/18 02:22:14;;;;;;;13.10;11.90;;;;;;;16.83;98.80;101397.38;5051428;28;20042;-78
2022/08/18 02:24:42;;;;;;;12.98;11.93;;;;;;;16.81;98.97;101386.34;5050905;28;20449;-78
2022/08/18 02:27:09;;;;;;;12.60;11.50;;;;;;;16.78;99.42;101387.28;5050922;28;20049;-78
2022/08/18 02:29:37;;;;;;;13.60;12.32;;;;;;;16.72;99.00;101381.09;5052341;28;20494;-77
2022/08/18 02:32:04;;;;;;;12.95;11.63;;;;;;;16.73;98.97;101377.19;5050983;28;20045;-78
2022/08/18 02:34:31;;;;;;;13.75;12.52;;;;;;;16.72;98.45;101379.16;5050774;28;20092;-78
2022/08/18 02:36:59;;;;;;;13.85;12.20;;;;;;;16.65;98.74;101384.91;5049891;28;20511;-78
2022/08/18 02:39:26;;;;;;;13.68;12.48;;;;;;;16.63;98.86;101384.59;5051056;28;20045;-78
2022/08/18 02:41:53;;;;;;;13.30;12.20;;;;;;;16.60;98.68;101391.63;5052136;28;20045;-78
2022/08/18 02:44:19;;;;;;;13.70;12.30;;;;;;;16.59;98.57;101395.53;5052498;28;20502;-77
2022/08/18 02:46:51;;;;;;;12.75;11.60;;;;;;;16.57;99.35;101389.88;5052562;28;20482;-77
2022/08/18 02:49:18;;;;;;;15.73;12.05;;;;;;;16.56;99.31;101396.47;5052583;28;20045;-78
2022/08/18 02:51:45;;;;;;;12.27;11.27;;;;;;;16.53;98.70;101399.34;5051723;28;20046;-78
2022/08/18 02:54:11;;;;;;;13.32;12.02;;;;;;;16.52;99.00;101408.59;5050670;28;20075;-78
2022/08/18 02:56:38;;;;;;;13.60;12.50;;;;;;;16.49;99.38;101412.22;5052013;28;20050;-78
2022/08/18 02:59:14;;;;;;;13.73;12.32;;;;;;;16.46;100.00;101413.88;5050403;28;20053;-77
2022/08/18 03:01:44;;;;;;;13.73;12.35;;;;;;;16.46;99.74;101405.06;5052170;28;20045;-77
2022/08/18 03:04:14;;;;;;;13.48;12.00;;;;;;;16.45;99.60;101406.28;5051731;28;20512;-77
2022/08/18 03:06:42;;;;;;;13.60;12.40;;;;;;;16.43;100.00;101400.63;5051110;28;20057;-77
2022/08/18 03:09:13;;;;;;;15.05;12.00;;;;;;;16.44;99.49;101407.47;5050435;28;20557;-77
2022/08/18 03:11:40;;;;;;;13.50;12.30;;;;;;;16.44;99.80;101408.22;5051615;28;20076;-77
2022/08/18 03:14:09;;;;;;;12.90;11.80;;;;;;;16.44;99.95;101416.28;5050399;28;20049;-77
2022/08/18 03:16:39;;;;;;;12.98;11.77;;;;;;;16.44;100.00;101420.91;5050033;28;20133;-78
2022/08/18 03:19:18;;;;;;;16.92;11.77;;;;;;;16.39;100.00;101418.91;5051754;28;20045;-77
2022/08/18 03:21:46;;;;;;;15.35;12.10;;;;;;;16.38;100.00;101422.78;5052161;28;20045;-77
2022/08/18 03:24:13;;;;;;;12.55;11.45;;;;;;;16.38;100.00;101417.41;5050568;28;20053;-77
2022/08/18 03:26:47;;;;;;;21.88;12.35;;;;;;;16.39;100.00;101425.03;5050896;28;20042;-77
2022/08/18 03:29:14;;;;;;;13.07;11.80;;;;;;;16.41;100.00;101421.84;5051607;28;20092;-78
2022/08/18 03:31:43;;;;;;;22.60;12.18;;;;;;;16.43;100.00;101424.81;5050459;28;20100;-76
2022/08/18 03:34:10;;;;;;;20.40;10.95;;;;;;;16.41;100.00;101416.47;5052981;28;20053;-78
2022/08/18 03:36:37;;;;;;;31.90;11.98;;;;;;;16.38;100.00;101418.16;5053754;28;20116;-78
2022/08/18 03:39:07;;;;;;;12.55;11.30;;;;;;;16.36;100.00;101423.25;5054882;28;20042;-78
2022/08/18 03:41:38;;;;;;;12.50;11.40;;;;;;;16.39;100.00;101418.91;5036634;28;20157;-78
2022/08/18 03:44:24;;;;;;;12.32;11.23;;;;;;;16.39;99.97;101418.91;5053313;28;20116;-78
2022/08/18 03:46:51;;;;;;;12.40;11.38;;;;;;;16.38;99.91;101417.41;5054864;28;20045;-78
2022/08/18 03:49:19;;;;;;;12.27;11.23;;;;;;;16.37;100.00;101419.38;5054617;28;20104;-79
2022/08/18 03:51:47;;;;;;;12.70;11.50;;;;;;;16.36;100.00;101428.63;5053675;28;20053;-78
2022/08/18 03:54:16;;;;;;;16.33;11.50;;;;;;;16.34;100.00;101422.97;5054602;28;20120;-78
2022/08/18 03:56:44;;;;;;;12.40;11.32;;;;;;;16.31;100.00;101421.94;5054606;28;20041;-79
2022/08/18 03:59:18;;;;;;;13.52;12.43;;;;;;;16.31;100.00;101426.59;5053243;28;20049;-78
2022/08/18 04:01:46;;;;;;;19.42;11.73;;;;;;;16.30;100.00;101420.47;5053668;28;20057;-78
2022/08/18 04:04:26;;;;;;;15.02;12.00;;;;;;;16.31;100.00;101413.16;5069527;28;20053;-78
2022/08/18 04:06:57;;;;;;;13.40;12.00;;;;;;;16.30;100.00;101425.84;5054569;28;20050;-78
2022/08/18 04:09:28;;;;;;;19.23;12.77;;;;;;;16.29;100.00;101429.72;5052966;28;20445;-78
2022/08/18 04:11:55;;;;;;;14.85;12.32;;;;;;;16.26;100.00;101430.66;5036439;28;20045;-78
2022/08/18 04:14:24;;;;;;;13.13;12.02;;;;;;;16.26;100.00;101427.97;5036485;28;20042;-78
2022/08/18 04:16:50;;;;;;;13.80;12.45;;;;;;;16.27;100.00;101423.34;5054314;28;20049;-78
2022/08/18 04:19:17;;;;;;;16.30;12.50;;;;;;;16.23;100.00;101426.19;5054105;28;20461;-78
2022/08/18 04:21:56;;;;;;;14.80;13.23;;;;;;;16.24;100.00;101427.69;5053375;28;20073;-78
2022/08/18 04:24:24;;;;;;;14.43;12.98;;;;;;;16.23;100.00;101430.84;5052661;28;20553;-78
2022/08/18 04:26:52;;;;;;;13.15;12.05;;;;;;;16.21;100.00;101428.59;5054122;28;20053;-78
2022/08/18 04:29:20;;;;;;;14.07;12.68;;;;;;;16.21;100.00;101431.28;5054190;28;20045;-78
2022/08/18 04:31:49;;;;;;;13.80;12.60;;;;;;;16.22;100.00;101426.66;5053595;28;20475;-78
2022/08/18 04:34:16;;;;;;;14.43;13.02;;;;;;;16.24;100.00;101425.00;5036207;28;20091;-78
2022/08/18 04:36:43;;;;;;;15.13;13.30;;;;;;;16.25;100.00;101431.84;5053673;28;20045;-78
2022/08/18 04:39:11;;;;;;;14.15;12.85;;;;;;;16.26;100.00;101425.28;5053515;28;20045;-78
2022/08/18 04:41:40;;;;;;;14.15;12.90;;;;;;;16.28;100.00;101432.88;5053594;28;20135;-78
2022/08/18 04:44:08;;;;;;;14.73;13.32;;;;;;;16.32;100.00;101420.00;5051558;28;20054;-78
2022/08/18 04:46:38;;;;;;;14.13;12.52;;;;;;;16.36;100.00;101420.56;5051839;28;20049;-78
2022/08/18 04:49:07;;;;;;;17.20;13.93;;;;;;;16.42;100.00;101426.00;5052351;28;20053;-78
2022/08/18 04:51:35;;;;;;;15.68;13.85;;;;;;;16.46;100.00;101421.19;5052140;28;20049;-79
2022/08/18 04:54:23;;;;;;;15.32;12.35;;;;;;;16.50;100.00;101421.75;5053815;28;20069;-78
2022/08/18 04:56:50;;;;;;;15.32;12.40;;;;;;;16.52;100.00;101414.72;5052204;28;20049;-78
2022/08/18 04:59:17;;;;;;;13.82;12.43;;;;;;;16.56;100.00;101425.28;5054185;28;20046;-78
2022/08/18 05:01:46;;;;;;;13.23;12.02;;;;;;;16.58;100.00;101412.13;5035440;28;20049;-78
2022/08/18 05:04:15;;;;;;;18.63;12.63;;;;;;;16.61;100.00;101420.00;5053399;28;20103;-78
2022/08/18 05:06:42;;;;;;;15.55;12.82;;;;;;;16.64;100.00;101426.41;5051948;28;20458;-78
2022/08/18 05:09:10;;;;;;;19.15;12.52;;;;;;;16.69;100.00;101431.16;5053139;28;20052;-78
2022/08/18 05:11:38;;;;;;;14.65;12.65;;;;;;;16.74;100.00;101429.75;5052124;28;20045;-79
2022/08/18 05:14:07;;;;;;;13.85;11.85;;;;;;;16.80;100.00;101425.94;5053253;28;20568;-79
2022/08/18 05:16:35;;;;;;;14.23;12.15;;;;;;;16.86;100.00;101431.41;5051486;28;20080;-79
2022/08/18 05:19:15;;;;;;;13.50;12.20;;;;;;;16.90;100.00;101424.63;5053735;28;20132;-78
2022/08/18 05:21:45;;;;;;;18.75;12.75;;;;;;;17.00;100.00;101433.31;5053057;28;20037;-79
2022/08/18 05:24:16;;;;;;;13.77;12.38;;;;;;;17.13;100.00;101430.34;5052695;28;20045;-76
2022/08/18 05:26:43;;;;;;;13.95;12.45;;;;;;;17.79;100.00;101424.34;5053257;28;20053;-76
2022/08/18 05:29:11;;;;;;;12.40;11.25;;;;;;;19.02;96.05;101434.25;5051611;28;20049;-79
2022/08/18 05:31:45;;;;;;;15.48;11.57;;;;;;;20.15;90.68;101428.06;5051219;28;20084;-79
2022/08/18 05:34:11;;;;;;;14.07;10.98;;;;;;;20.94;86.15;101441.13;5051509;28;20041;-79
2022/08/18 05:36:49;;;;;;;12.55;11.25;;;;;;;21.47;83.39;101439.28;5035107;28;20518;-79
2022/08/18 05:39:29;;;;;;;12.68;11.32;;;;;;;22.12;81.68;101437.97;5052240;28;20045;-79
2022/08/18 05:42:06;;;;;;;13.70;10.73;;;;;;;22.58;78.48;101429.00;5053359;28;20044;-78
2022/08/18 05:44:40;;;;;;;16.60;10.95;;;;;;;23.03;75.49;101431.31;5050894;28;20414;-78
2022/08/18 05:47:18;;;;;;;12.30;9.50;;;;;;;23.51;74.02;101436.69;5051503;28;20093;-78
2022/08/18 05:49:49;;;;;;;14.90;10.52;;;;;;;23.46;72.04;101439.47;5034908;28;20064;-78
2022/08/18 05:52:19;;;;;;;10.75;9.75;;;;;;;23.28;72.96;101424.59;5051997;28;20057;-81
2022/08/18 05:57:46;;;;;;;11.40;10.05;;;;;;;22.13;76.88;101425.91;5052268;28;20471;-76
2022/08/18 06:00:13;;;;;;;11.32;10.23;;;;;;;21.26;80.26;101422.59;5051690;28;20041;-75
2022/08/18 06:02:49;;;;;;;11.02;9.77;;;;;;;21.01;82.08;101423.66;5051299;28;20486;-77
2022/08/18 06:05:34;;;;;;;11.27;10.20;;;;;;;20.89;82.43;101433.00;5052518;28;20076;-74
2022/08/18 06:08:03;;;;;;;12.18;9.65;;;;;;;21.53;81.79;101426.47;5052844;28;20569;-75
2022/08/18 06:10:30;;;;;;;10.55;9.52;;;;;;;22.25;78.39;101427.28;5051098;28;20046;-75
2022/08/18 06:13:00;;;;;;;10.25;9.35;;;;;;;21.89;78.15;101429.22;5052590;28;20046;-74
2022/08/18 06:15:30;;;;;;;10.30;9.30;;;;;;;21.18;81.42;101435.19;5050606;28;20111;-73
2022/08/18 06:18:22;;;;;;;11.27;10.13;;;;;;;21.48;81.86;101432.63;5052194;28;20053;-76
2022/08/18 06:21:10;;;;;;;13.80;8.77;;;;;;;22.22;79.17;101439.16;5050872;28;20053;-77
2022/08/18 06:23:56;;;;;;;9.68;8.50;;;;;;;22.68;76.64;101437.56;5050991;28;20064;-75
2022/08/18 06:26:40;;;;;;;10.95;8.80;;;;;;;22.66;77.12;101432.63;5050609;28;20053;-75
2022/08/18 06:29:28;;;;;;;10.90;9.27;;;;;;;22.56;75.97;101439.63;5050768;28;20115;-76
2022/08/18 06:32:07;;;;;;;9.85;8.27;;;;;;;22.38;78.18;101434.84;5052543;28;20045;-75
2022/08/18 06:34:51;;;;;;;12.90;8.65;;;;;;;22.23;79.25;101427.78;5050906;28;20108;-74
2022/08/18 06:37:27;;;;;;;11.68;8.60;;;;;;;22.10;80.21;101426.91;5052600;28;20045;-74
2022/08/18 06:39:55;;;;;;;10.80;7.97;;;;;;;22.02;80.44;101429.41;5050626;28;20057;-74
2022/08/18 06:42:29;;;;;;;11.80;8.35;;;;;;;22.01;80.07;101435.31;5051700;28;20491;-75
2022/08/18 06:45:17;;;;;;;8.60;7.75;;;;;;;21.96;81.79;101442.25;5050699;28;20045;-75
2022/08/18 06:48:06;;;;;;;12.93;7.15;;;;;;;22.00;81.31;101436.53;5052157;28;20042;-75
2022/08/18 06:50:50;;;;;;;9.88;7.45;;;;;;;21.94;81.21;101442.75;5050742;28;20049;-74
2022/08/18 06:53:18;;;;;;;10.57;6.65;;;;;;;21.89;81.17;101445.50;5052426;28;20518;-75
2022/08/18 06:55:53;;;;;;;7.13;6.43;;;;;;;21.84;81.12;101446.25;5052104;28;20520;-74
2022/08/18 06:58:28;;;;;;;7.68;6.97;;;;;;;21.90;82.43;101455.09;5051655;28;20041;-74
2022/08/18 07:01:04;;;;;;;7.20;6.50;;;;;;;21.91;81.18;101457.31;5052166;28;20046;-75
2022/08/18 07:03:33;;;;;;;8.27;6.53;;;;;;;21.92;81.94;101458.03;5052095;28;20046;-77
2022/08/18 07:06:07;;;;;;;6.90;6.18;;;;;;;21.92;80.84;101453.38;5051134;28;20058;-76
2022/08/18 07:08:40;;;;;;;8.38;6.30;;;;;;;21.94;80.46;101461.00;5049637;28;20556;-77
2022/08/18 07:11:25;;;;;;;9.55;7.13;;;;;;;22.02;81.35;101467.38;5051459;28;20053;-76
2022/08/18 07:14:10;;;;;;;7.28;6.25;;;;;;;22.06;81.31;101472.53;5050668;28;20577;-76
2022/08/18 07:16:42;;;;;;;6.93;6.30;;;;;;;22.18;79.90;101471.22;5050756;28;20081;-76
2022/08/18 07:19:30;;;;;;;7.28;6.43;;;;;;;22.34;80.02;101470.38;5049877;28;20108;-76
2022/08/18 07:22:16;;;;;;;9.40;6.40;;;;;;;22.26;79.95;101474.88;5029428;28;20120;-76
2022/08/18 07:24:45;;;;;;;6.53;5.93;;;;;;;22.44;80.54;101478.91;5030717;28;20045;-76
2022/08/18 07:27:16;;;;;;;8.27;5.85;;;;;;;22.63;77.96;101474.34;5030548;28;20094;-76
2022/08/18 07:29:59;;;;;;;10.63;6.20;;;;;;;22.83;77.23;101481.34;5029700;28;20046;-76
2022/08/18 07:32:33;;;;;;;9.45;5.60;;;;;;;23.00;76.31;101478.47;5029591;28;20451;-76
2022/08/18 07:35:03;;;;;;;5.90;5.50;;;;;;;23.15;74.64;101487.72;5030787;28;20049;-76
2022/08/18 07:37:44;;;;;;;5.82;5.32;;;;;;;23.35;75.17;101488.47;5029937;28;20073;-80
2022/08/18 07:40:37;;;;;;;5.35;4.90;;;;;;;23.34;74.15;101497.88;5029916;28;20487;-79
2022/08/18 07:43:21;;;;;;;5.65;5.13;;;;;;;23.53;73.18;101491.28;5013225;28;20503;-79
2022/08/18 07:45:54;;;;;;;8.27;4.90;;;;;;;23.56;71.98;101487.53;5030145;28;20487;-80
2022/08/18 07:48:29;;;;;;;5.70;5.00;;;;;;;23.47;73.59;101487.84;5030060;28;20042;-79
2022/08/18 07:51:28;;;;;;;5.28;4.88;;;;;;;23.69;72.78;101491.56;5030366;28;20104;-81
2022/08/18 07:54:18;;;;;;;5.80;5.18;;;;;;;23.70;72.29;101496.50;5014526;28;20050;-81
2022/08/18 07:57:36;;;;;;;5.43;4.95;;;;;;;23.86;71.83;101505.69;5030302;28;20116;-81
2022/08/18 08:00:28;;;;;;;5.18;4.78;;;;;;;23.81;70.83;101503.78;5013861;28;20373;-82
2022/08/18 08:03:36;;;;;;;6.05;4.88;;;;;;;24.03;72.08;101498.03;5030235;28;20053;-81
2022/08/18 08:06:15;;;;;;;5.10;4.70;;;;;;;24.32;70.19;101501.13;5012274;28;20064;-81
2022/08/18 08:09:28;;;;;;;5.43;4.88;;;;;;;24.45;70.79;101503.88;5013342;28;20050;-76
2022/08/18 08:11:59;;;;;;;7.43;5.00;;;;;;;24.59;68.55;101497.97;5048140;28;20053;-75
2022/08/18 08:14:44;;;;;;;6.25;4.93;;;;;;;24.39;70.98;101506.69;5015212;28;20054;-75
2022/08/18 08:17:24;;;;;;;4.70;4.30;;;;;;;24.38;71.05;101497.09;5014767;28;20100;-75
2022/08/18 08:20:08;;;;;;;5.88;5.38;;;;;;;23.88;71.16;101495.03;5016642;28;20561;-76
2022/08/18 08:22:50;;;;;;;5.55;5.03;;;;;;;23.54;73.54;101484.59;5035157;28;20060;-76
2022/08/18 08:25:29;;;;;;;5.95;4.90;;;;;;;23.22;73.10;101492.56;5034483;28;20526;-75
2022/08/18 08:29:03;;;;;;;6.55;5.15;;;;;;;22.97;74.03;101487.63;5051653;28;20054;-75
2022/08/18 08:31:41;;;;;;;6.32;5.20;;;;;;;22.76;74.84;101498.19;5025583;28;20583;-75
2022/08/18 08:34:14;;;;;;;5.50;4.97;;;;;;;22.70;73.83;101492.78;5047772;28;20128;-75
2022/08/18 08:36:44;;;;;;;7.13;5.10;;;;;;;22.67;75.21;101485.66;5029276;28;20065;-75
2022/08/18 08:39:20;;;;;;;5.75;5.35;;;;;;;22.67;75.29;101493.06;5028490;28;20057;-75
2022/08/18 08:41:59;;;;;;;5.72;4.60;;;;;;;22.68;73.14;101479.00;5045158;28;20053;-76
2022/08/18 08:45:02;;;;;;;4.30;3.88;;;;;;;22.91;69.88;101479.53;5032897;28;20057;-77
2022/08/18 08:47:58;;;;;;;4.60;4.18;;;;;;;23.53;71.31;101479.66;5032665;28;20048;-76
2022/08/18 08:50:45;;;;;;;6.07;4.45;;;;;;;24.05;68.83;101481.19;5028041;28;20519;-77
2022/08/18 08:53:21;;;;;;;4.78;4.35;;;;;;;24.35;64.59;101483.78;5012528;28;20042;-76
2022/08/18 08:55:54;;;;;;;4.15;3.50;;;;;;;24.54;65.88;101484.44;5029607;28;20093;-77
2022/08/18 08:58:35;;;;;;;6.47;4.10;;;;;;;24.90;64.38;101488.28;5013457;28;20050;-78
2022/08/18 09:01:04;;;;;;;6.18;4.15;;;;;;;25.03;64.58;101489.59;5012417;28;20051;-75
2022/08/18 09:03:46;;;;;;;3.75;3.47;;;;;;;24.87;64.53;101486.59;5012128;28;20097;-76
2022/08/18 09:06:50;;;;;;;4.10;3.78;;;;;;;24.62;66.95;101490.03;5015459;28;20496;-76
2022/08/18 09:09:26;;;;;;;4.32;3.88;;;;;;;24.63;69.55;101492.22;5014723;28;20050;-76
2022/08/18 09:12:17;;;;;;;7.43;4.40;;;;;;;24.58;66.42;101487.59;5031114;28;20057;-76
2022/08/18 09:15:32;;;;;;;4.78;4.07;;;;;;;24.78;66.48;101494.47;5033374;28;20049;-76
2022/08/18 09:18:15;;;;;;;4.22;3.83;;;;;;;25.27;64.48;101498.28;5030522;28;20415;-79
2022/08/18 09:21:05;;;;;;;4.45;3.72;;;;;;;25.53;63.74;101508.44;5033505;28;20053;-79
2022/08/18 09:23:38;;;;;;;4.25;3.65;;;;;;;25.77;61.27;101504.03;5031493;28;20046;-79
2022/08/18 09:26:24;;;;;;;4.30;3.88;;;;;;;25.79;60.68;101504.97;5032003;28;20046;-79
2022/08/18 09:29:17;;;;;;;4.40;3.28;;;;;;;25.98;61.74;101502.09;5031819;28;20054;-80
2022/08/18 09:31:45;;;;;;;3.30;3.00;;;;;;;26.29;58.41;101500.38;5032775;28;20034;-79
2022/08/18 09:34:32;;;;;;;4.13;3.35;;;;;;;26.41;59.05;101495.41;5031590;28;20053;-80
2022/08/18 09:37:26;;;;;;;3.45;3.25;;;;;;;26.20;58.75;101492.66;5031496;28;20033;-80
2022/08/18 09:43:14;;;;;;;3.53;3.30;;;;;;;25.35;62.08;101508.56;5044504;28;20576;-80
2022/08/18 09:45:45;;;;;;;3.90;3.08;;;;;;;24.93;63.01;101503.59;5012602;28;20058;-79
2022/08/18 09:48:13;;;;;;;4.32;4.03;;;;;;;24.77;63.16;101499.19;5011505;28;20511;-80
2022/08/18 09:50:55;;;;;;;3.83;3.53;;;;;;;24.67;64.55;101492.66;5011436;28;20102;-80
2022/08/18 09:53:52;;;;;;;3.95;3.58;;;;;;;24.51;64.31;101494.38;5011425;28;20049;-80
2022/08/18 09:56:48;;;;;;;8.10;3.80;;;;;;;24.59;66.09;101486.34;5011916;28;20054;-79
2022/08/18 09:59:44;;;;;;;3.47;3.17;;;;;;;24.65;64.68;101491.72;4995981;28;20058;-80
2022/08/18 10:02:36;;;;;;;3.80;3.50;;;;;;;24.73;64.47;101490.56;5029371;28;20054;-84
2022/08/18 10:05:18;;;;;;;4.82;3.17;;;;;;;24.62;63.73;101479.88;5012805;28;20525;-79
2022/08/18 10:07:44;;;;;;;3.20;3.00;;;;;;;24.44;64.15;101475.94;5013090;28;20549;-80
2022/08/18 10:10:29;;;;;;;3.85;3.55;;;;;;;24.53;65.48;101475.56;5030298;28;20053;-82
2022/08/18 10:13:35;;;;;;;3.63;3.40;;;;;;;24.63;65.03;101478.63;5016174;28;20094;-82
2022/08/18 10:16:30;;;;;;;5.72;3.80;;;;;;;24.74;66.14;101477.69;5013453;28;20221;-83
2022/08/18 10:19:25;;;;;;;4.15;3.83;;;;;;;24.77;66.10;101474.66;5030029;28;20121;-78
2022/08/18 10:22:08;;;;;;;4.05;3.67;;;;;;;25.56;62.40;101473.94;5030559;28;20080;-78
2022/08/18 10:24:52;;;;;;;3.70;3.42;;;;;;;26.29;60.86;101475.81;5030243;28;20058;-78
2022/08/18 10:27:40;;;;;;;4.70;4.28;;;;;;;26.28;58.14;101477.09;5029034;28;20054;-79
2022/08/18 10:30:27;;;;;;;4.47;4.18;;;;;;;25.86;58.97;101481.75;5029559;28;20050;-77
2022/08/18 10:33:53;;;;;;;3.58;3.38;;;;;;;25.65;60.61;101480.97;5016191;28;20133;-82
2022/08/18 10:36:48;;;;;;;4.07;3.78;;;;;;;25.31;61.21;101487.06;5012378;28;20493;-75
2022/08/18 10:39:20;;;;;;;3.50;3.25;;;;;;;25.04;60.48;101491.06;5020107;28;20541;-74
2022/08/18 10:42:38;;;;;;;4.80;3.00;;;;;;;24.93;61.38;101486.50;5026512;28;20097;-77
2022/08/18 10:45:11;;;;;;;3.63;3.25;;;;;;;24.89;60.99;101489.53;5017786;28;20054;-77
2022/08/18 10:47:41;;;;;;;3.38;3.17;;;;;;;24.86;61.50;101487.13;5022295;28;20038;-78
2022/08/18 10:50:21;;;;;;;4.63;3.85;;;;;;;24.94;62.61;101485.25;5031224;28;20104;-78
2022/08/18 10:53:17;;;;;;;9.00;4.03;;;;;;;25.03;62.76;101490.31;5031841;28;20045;-78
2022/08/18 10:56:30;;;;;;;3.55;3.33;;;;;;;24.98;62.16;101482.97;5029103;28;20615;-75
2022/08/18 10:59:34;;;;;;;4.38;3.50;;;;;;;24.99;62.30;101491.88;5031864;28;20108;-75
2022/08/18 11:02:41;;;;;;;3.63;3.20;;;;;;;25.00;62.17;101490.63;5049503;28;20057;-74
2022/08/18 11:05:10;;;;;;;3.60;3.25;;;;;;;24.94;62.53;101487.97;5048182;28;20061;-75
2022/08/18 11:07:42;;;;;;;3.38;2.92;;;;;;;24.90;62.15;101496.44;5048567;28;20422;-75
2022/08/18 11:10:18;;;;;;;3.08;2.88;;;;;;;25.07;62.67;101482.56;5015307;28;20056;-75
2022/08/18 11:13:13;;;;;;;3.45;3.25;;;;;;;25.25;61.39;101481.72;5048796;28;20053;-74
2022/08/18 11:16:17;;;;;;;2.80;2.63;;;;;;;25.44;60.69;101483.59;5031460;28;20781;-75
2022/08/18 11:18:50;;;;;;;2.67;2.58;;;;;;;25.38;59.63;101485.69;5031467;28;20111;-75
2022/08/18 11:21:40;;;;;;;2.53;2.40;;;;;;;25.62;59.09;101477.28;5049469;28;20054;-75
2022/08/18 11:24:30;;;;;;;2.63;2.50;;;;;;;26.07;58.42;101476.31;5049291;28;20061;-75
2022/08/18 11:27:03;;;;;;;2.20;2.10;;;;;;;26.37;57.50;101470.47;5032069;28;20213;-75
2022/08/18 11:29:41;;;;;;;2.72;2.50;;;;;;;26.59;56.70;101464.44;5031900;28;20053;-75
2022/08/18 11:32:17;;;;;;;2.72;2.50;;;;;;;26.64;55.63;101469.03;5031886;28;20104;-75
2022/08/18 11:34:51;;;;;;;2.65;2.50;;;;;;;26.92;54.35;101468.31;5032930;28;20057;-75
2022/08/18 11:37:42;;;;;;;3.15;2.95;;;;;;;26.64;54.96;101465.56;5013795;28;20058;-76
2022/08/18 11:40:17;;;;;;;3.25;2.95;;;;;;;26.73;56.11;101474.03;5030107;28;20097;-75
2022/08/18 11:43:15;;;;;;;3.60;2.97;;;;;;;26.95;55.25;101456.31;5030134;28;20069;-75
2022/08/18 11:45:53;;;;;;;5.43;3.28;;;;;;;26.84;55.79;101451.13;5031437;28;20474;-76
2022/08/18 11:48:44;;;;;;;3.03;2.83;;;;;;;26.52;56.80;101463.13;5031257;28;20050;-75
2022/08/18 11:51:26;;;;;;;3.30;3.10;;;;;;;26.35;55.70;101454.63;5030168;28;20052;-76
2022/08/18 11:53:56;;;;;;;2.85;2.53;;;;;;;26.31;56.48;101446.03;5031799;28;20050;-75
2022/08/18 11:56:43;;;;;;;3.47;2.78;;;;;;;26.24;56.21;101446.66;5033111;28;20049;-76
2022/08/18 11:59:24;;;;;;;4.72;2.88;;;;;;;26.21;58.39;101445.72;5032979;28;20056;-76
2022/08/18 12:02:15;;;;;;;2.78;2.58;;;;;;;26.24;57.07;101444.69;5034274;28;20573;-75
2022/08/18 12:04:42;;;;;;;;;;;;;;;26.24;57.80;101447.41;5035122;28;20046;-75
2022/08/18 12:07:14;;;;;;;4.82;2.60;;;;;;;26.19;57.69;101456.44;5034059;28;19932;-77
2022/08/18 12:10:26;;;;;;;3.00;2.80;;;;;;;26.13;57.43;101449.66;5034986;28;20540;-75